createdAt,value
2023-12-03T00:00:31.920Z,52.62
2023-12-03T00:01:31.584Z,55.30
2023-12-03T00:02:31.725Z,54.42
2023-12-03T00:03:31.759Z,56.78
2023-12-03T00:04:31.811Z,55.28
2023-12-03T00:05:31.844Z,56.77
2023-12-03T00:06:31.970Z,54.00
2023-12-03T00:07:32.056Z,54.53
2023-12-03T00:08:44.526Z,52.82
2023-12-03T00:09:33.078Z,52.86
2023-12-03T00:10:32.097Z,53.36
2023-12-03T00:11:32.076Z,54.20
2023-12-03T00:12:32.208Z,54.21
2023-12-03T00:13:32.051Z,53.23
2023-12-03T00:14:32.060Z,50.51
2023-12-03T00:15:32.061Z,53.50
2023-12-03T00:16:32.086Z,53.89
2023-12-03T00:17:32.141Z,55.79
2023-12-03T00:18:32.344Z,54.56
2023-12-03T00:19:32.233Z,52.40
2023-12-03T00:20:32.331Z,53.84
2023-12-03T00:21:32.408Z,54.15
2023-12-03T00:22:32.456Z,53.44
2023-12-03T00:23:32.514Z,54.39
2023-12-03T00:24:32.617Z,53.47
2023-12-03T00:25:32.635Z,53.82
2023-12-03T00:26:32.739Z,52.20
2023-12-03T00:27:32.833Z,55.59
2023-12-03T00:28:32.854Z,55.12
2023-12-03T00:29:32.912Z,55.29
2023-12-03T00:30:32.999Z,54.20
2023-12-03T00:31:33.091Z,55.18
2023-12-03T00:32:33.129Z,54.41
2023-12-03T00:33:33.287Z,55.45
2023-12-03T00:34:33.346Z,53.13
2023-12-03T00:35:33.325Z,54.03
2023-12-03T00:36:33.390Z,54.62
2023-12-03T00:37:33.415Z,54.14
2023-12-03T00:38:33.497Z,52.87
2023-12-03T00:39:33.626Z,54.41
2023-12-03T00:40:33.652Z,52.80
2023-12-03T00:41:33.706Z,53.04
2023-12-03T00:42:33.765Z,52.70
2023-12-03T00:43:33.845Z,51.73
2023-12-03T00:44:33.889Z,54.06
2023-12-03T00:45:33.974Z,56.06
2023-12-03T00:46:34.005Z,53.26
2023-12-03T00:47:34.143Z,54.37
2023-12-03T00:48:34.248Z,53.57
2023-12-03T00:49:34.320Z,53.80
2023-12-03T00:50:34.302Z,53.70
2023-12-03T00:51:34.454Z,52.07
2023-12-03T00:52:34.406Z,52.33
2023-12-03T00:53:34.505Z,54.32
2023-12-03T00:54:34.610Z,52.34
2023-12-03T00:55:34.619Z,53.66
2023-12-03T00:56:34.727Z,54.92
2023-12-03T00:57:34.810Z,53.54
2023-12-03T00:58:34.870Z,54.58
2023-12-03T00:59:34.905Z,53.60
2023-12-03T01:00:34.999Z,54.85
2023-12-03T01:01:35.083Z,51.99
2023-12-03T01:02:35.141Z,51.34
2023-12-03T01:03:35.241Z,52.12
2023-12-03T01:04:35.315Z,53.64
2023-12-03T01:05:35.346Z,51.83
2023-12-03T01:06:35.434Z,52.37
2023-12-03T01:07:35.450Z,51.84
2023-12-03T01:08:35.544Z,52.73
2023-12-03T01:09:35.611Z,53.61
2023-12-03T01:10:35.699Z,52.72
2023-12-03T01:11:36.869Z,52.64
2023-12-03T01:12:35.950Z,54.93
2023-12-03T01:13:35.928Z,53.74
2023-12-03T01:14:35.972Z,53.36
2023-12-03T01:15:36.072Z,55.61
2023-12-03T01:16:36.093Z,54.72
2023-12-03T01:17:36.195Z,54.90
2023-12-03T01:18:36.256Z,54.87
2023-12-03T01:19:36.314Z,53.30
2023-12-03T01:20:36.355Z,53.90
2023-12-03T01:21:36.476Z,54.14
2023-12-03T01:22:36.479Z,54.76
2023-12-03T01:23:36.553Z,54.33
2023-12-03T01:24:36.641Z,53.41
2023-12-03T01:25:36.685Z,53.67
2023-12-03T01:26:36.745Z,54.98
2023-12-03T01:27:36.828Z,53.72
2023-12-03T01:28:36.847Z,54.15
2023-12-03T01:29:36.953Z,53.49
2023-12-03T01:30:37.060Z,54.55
2023-12-03T01:31:37.071Z,55.63
2023-12-03T01:32:37.229Z,55.36
2023-12-03T01:33:37.255Z,55.21
2023-12-03T01:34:37.306Z,54.01
2023-12-03T01:35:38.069Z,54.25
2023-12-03T01:36:37.374Z,55.84
2023-12-03T01:37:37.417Z,54.12
2023-12-03T01:38:37.467Z,54.56
2023-12-03T01:39:37.582Z,51.91
2023-12-03T01:40:37.647Z,51.80
2023-12-03T01:41:37.695Z,55.48
2023-12-03T01:42:37.806Z,55.05
2023-12-03T01:43:37.811Z,55.12
2023-12-03T01:44:37.887Z,54.32
2023-12-03T01:45:38.055Z,57.51
2023-12-03T01:46:38.055Z,54.93
2023-12-03T01:47:38.144Z,55.42
2023-12-03T01:48:38.213Z,55.09
2023-12-03T01:49:38.291Z,55.29
2023-12-03T01:50:38.278Z,53.34
2023-12-03T01:51:38.347Z,55.06
2023-12-03T01:52:38.397Z,57.04
2023-12-03T01:53:38.476Z,54.63
2023-12-03T01:54:38.541Z,56.57
2023-12-03T01:55:38.566Z,55.31
2023-12-03T01:56:38.621Z,55.39
2023-12-03T01:57:38.723Z,54.06
2023-12-03T01:58:38.741Z,55.24
2023-12-03T01:59:38.779Z,57.49
2023-12-03T02:00:39.931Z,56.40
2023-12-03T02:01:38.925Z,54.74
2023-12-03T02:02:39.015Z,56.78
2023-12-03T02:03:39.108Z,54.57
2023-12-03T02:04:39.187Z,56.11
2023-12-03T02:05:39.327Z,57.04
2023-12-03T02:06:39.334Z,55.39
2023-12-03T02:07:39.342Z,55.83
2023-12-03T02:08:39.425Z,56.10
2023-12-03T02:09:39.497Z,55.50
2023-12-03T02:10:39.502Z,56.57
2023-12-03T02:11:39.592Z,55.06
2023-12-03T02:12:39.709Z,54.20
2023-12-03T02:13:39.747Z,55.77
2023-12-03T02:14:39.762Z,55.75
2023-12-03T02:15:39.886Z,54.78
2023-12-03T02:16:39.942Z,55.83
2023-12-03T02:17:40.000Z,56.64
2023-12-03T02:18:40.180Z,55.14
2023-12-03T02:19:40.165Z,56.26
2023-12-03T02:20:40.194Z,55.75
2023-12-03T02:21:40.318Z,54.22
2023-12-03T02:22:40.295Z,56.81
2023-12-03T02:23:40.403Z,55.57
2023-12-03T02:24:40.472Z,55.70
2023-12-03T02:25:40.505Z,56.96
2023-12-03T02:26:40.586Z,55.38
2023-12-03T02:27:40.708Z,55.09
2023-12-03T02:28:40.703Z,55.64
2023-12-03T02:29:40.803Z,55.46
2023-12-03T02:30:40.870Z,57.18
2023-12-03T02:31:40.936Z,57.36
2023-12-03T02:32:41.046Z,54.53
2023-12-03T02:33:41.141Z,55.36
2023-12-03T02:34:41.197Z,58.07
2023-12-03T02:35:41.182Z,54.86
2023-12-03T02:36:41.305Z,56.06
2023-12-03T02:37:41.319Z,55.29
2023-12-03T02:38:41.415Z,56.06
2023-12-03T02:39:41.504Z,56.39
2023-12-03T02:40:41.545Z,58.10
2023-12-03T02:41:41.587Z,56.53
2023-12-03T02:42:41.666Z,54.56
2023-12-03T02:43:41.757Z,56.10
2023-12-03T02:44:41.789Z,57.32
2023-12-03T02:45:41.916Z,55.39
2023-12-03T02:46:41.959Z,56.80
2023-12-03T02:47:42.033Z,56.31
2023-12-03T02:48:42.135Z,58.02
2023-12-03T02:49:42.164Z,55.87
2023-12-03T02:50:42.209Z,56.47
2023-12-03T02:51:42.359Z,57.03
2023-12-03T02:52:42.391Z,57.99
2023-12-03T02:53:42.427Z,58.43
2023-12-03T02:54:42.576Z,56.25
2023-12-03T02:55:42.561Z,57.43
2023-12-03T02:56:42.675Z,57.23
2023-12-03T02:57:42.695Z,57.95
2023-12-03T02:58:42.781Z,57.83
2023-12-03T02:59:42.869Z,57.52
2023-12-03T03:00:42.938Z,56.10
2023-12-03T03:01:43.011Z,56.80
2023-12-03T03:02:43.033Z,55.86
2023-12-03T03:03:43.170Z,57.09
2023-12-03T03:04:43.230Z,55.40
2023-12-03T03:05:43.339Z,57.12
2023-12-03T03:06:43.454Z,59.53
2023-12-03T03:07:43.418Z,56.89
2023-12-03T03:08:43.481Z,56.56
2023-12-03T03:09:43.681Z,57.35
2023-12-03T03:10:43.627Z,56.02
2023-12-03T03:11:43.709Z,55.71
2023-12-03T03:12:43.801Z,56.75
2023-12-03T03:13:43.852Z,56.55
2023-12-03T03:14:43.971Z,57.59
2023-12-03T03:15:43.994Z,57.95
2023-12-03T03:16:44.090Z,57.60
2023-12-03T03:17:44.161Z,56.85
2023-12-03T03:18:44.257Z,55.36
2023-12-03T03:19:44.348Z,57.95
2023-12-03T03:20:44.975Z,57.78
2023-12-03T03:21:44.433Z,58.05
2023-12-03T03:22:44.485Z,55.54
2023-12-03T03:23:44.617Z,58.29
2023-12-03T03:24:44.710Z,55.95
2023-12-03T03:25:44.727Z,59.84
2023-12-03T03:26:44.779Z,57.79
2023-12-03T03:27:44.842Z,59.63
2023-12-03T03:28:44.934Z,56.27
2023-12-03T03:29:44.998Z,57.41
2023-12-03T03:30:45.140Z,55.44
2023-12-03T03:31:45.124Z,55.57
2023-12-03T03:32:45.193Z,56.12
2023-12-03T03:33:45.304Z,58.25
2023-12-03T03:34:45.355Z,57.63
2023-12-03T03:35:45.390Z,56.63
2023-12-03T03:36:45.543Z,55.41
2023-12-03T03:37:45.563Z,56.94
2023-12-03T03:38:45.629Z,56.57
2023-12-03T03:39:45.736Z,58.72
2023-12-03T03:40:45.752Z,59.50
2023-12-03T03:41:45.853Z,59.02
2023-12-03T03:42:45.943Z,56.59
2023-12-03T03:43:46.015Z,57.26
2023-12-03T03:44:46.020Z,58.06
2023-12-03T03:45:46.125Z,59.79
2023-12-03T03:46:46.197Z,60.01
2023-12-03T03:47:46.247Z,60.67
2023-12-03T03:48:46.351Z,57.78
2023-12-03T03:49:46.383Z,56.20
2023-12-03T03:50:46.478Z,57.55
2023-12-03T03:51:46.568Z,59.04
2023-12-03T03:52:46.587Z,58.80
2023-12-03T03:53:46.642Z,56.48
2023-12-03T03:54:46.748Z,58.03
2023-12-03T03:55:46.776Z,57.99
2023-12-03T03:56:46.869Z,60.65
2023-12-03T03:57:47.031Z,59.28
2023-12-03T03:58:46.991Z,60.06
2023-12-03T03:59:47.101Z,58.47
2023-12-03T04:00:47.219Z,60.99
2023-12-03T04:01:47.235Z,57.82
2023-12-03T04:02:47.282Z,59.88
2023-12-03T04:03:47.432Z,57.46
2023-12-03T04:04:47.488Z,57.84
2023-12-03T04:05:47.500Z,57.83
2023-12-03T04:06:47.651Z,58.26
2023-12-03T04:07:47.769Z,57.47
2023-12-03T04:08:47.681Z,59.75
2023-12-03T04:09:47.828Z,58.56
2023-12-03T04:10:47.839Z,57.86
2023-12-03T04:11:47.885Z,57.53
2023-12-03T04:12:47.990Z,57.39
2023-12-03T04:13:48.059Z,60.42
2023-12-03T04:14:48.130Z,57.71
2023-12-03T04:15:48.232Z,59.84
2023-12-03T04:16:48.210Z,58.83
2023-12-03T04:17:48.330Z,57.16
2023-12-03T04:18:48.500Z,59.09
2023-12-03T04:19:48.471Z,57.88
2023-12-03T04:20:48.527Z,59.01
2023-12-03T04:21:48.669Z,56.67
2023-12-03T04:22:48.657Z,57.22
2023-12-03T04:23:48.744Z,56.78
2023-12-03T04:24:48.820Z,57.88
2023-12-03T04:25:56.038Z,50.00
2023-12-03T04:26:56.001Z,50.00
2023-12-03T04:27:56.011Z,50.00
2023-12-03T04:28:56.056Z,50.00
2023-12-03T04:29:55.985Z,50.00
2023-12-03T04:30:58.260Z,50.38
2023-12-03T04:32:05.605Z,50.00
2023-12-03T04:33:05.580Z,50.00
2023-12-03T04:34:05.553Z,50.00
2023-12-03T04:35:05.563Z,50.00
2023-12-03T04:36:05.578Z,50.00
2023-12-03T04:37:05.564Z,53.35
2023-12-03T04:38:05.602Z,51.25
2023-12-03T04:39:05.583Z,50.00
2023-12-03T04:40:05.598Z,53.52
2023-12-03T04:41:05.587Z,50.21
2023-12-03T04:42:05.563Z,53.34
2023-12-03T04:43:05.577Z,50.69
2023-12-03T04:44:05.607Z,52.80
2023-12-03T04:45:05.592Z,51.76
2023-12-03T04:46:05.590Z,51.46
2023-12-03T04:47:05.559Z,52.36
2023-12-03T04:48:05.694Z,51.44
2023-12-03T04:49:05.614Z,51.46
2023-12-03T04:50:05.571Z,50.77
2023-12-03T04:51:05.560Z,50.78
2023-12-03T04:52:05.583Z,53.07
2023-12-03T04:53:05.584Z,52.84
2023-12-03T04:54:05.590Z,52.69
2023-12-03T04:55:05.604Z,54.88
2023-12-03T04:56:05.570Z,53.75
2023-12-03T04:57:05.602Z,53.16
2023-12-03T04:58:05.582Z,51.83
2023-12-03T04:59:05.683Z,52.47
2023-12-03T05:00:05.719Z,52.70
2023-12-03T05:01:05.796Z,55.67
2023-12-03T05:02:05.942Z,54.88
2023-12-03T05:03:05.979Z,54.04
2023-12-03T05:04:06.734Z,57.16
2023-12-03T05:05:06.068Z,54.94
2023-12-03T05:06:06.208Z,56.52
2023-12-03T05:07:06.375Z,55.69
2023-12-03T05:08:06.293Z,55.02
2023-12-03T05:09:06.384Z,54.33
2023-12-03T05:10:06.421Z,55.59
2023-12-03T05:11:06.539Z,55.03
2023-12-03T05:12:06.589Z,56.03
2023-12-03T05:13:06.653Z,56.79
2023-12-03T05:14:06.736Z,55.20
2023-12-03T05:15:06.771Z,55.19
2023-12-03T05:16:06.870Z,57.40
2023-12-03T05:17:07.017Z,54.46
2023-12-03T05:18:07.094Z,53.06
2023-12-03T05:19:07.254Z,54.46
2023-12-03T05:20:07.168Z,54.75
2023-12-03T05:21:07.216Z,55.95
2023-12-03T05:22:07.293Z,55.43
2023-12-03T05:23:08.485Z,54.99
2023-12-03T05:24:07.446Z,57.26
2023-12-03T05:25:07.477Z,55.50
2023-12-03T05:26:07.535Z,55.61
2023-12-03T05:27:07.623Z,55.03
2023-12-03T05:28:07.702Z,57.60
2023-12-03T05:29:07.898Z,55.55
2023-12-03T05:30:07.854Z,55.87
2023-12-03T05:31:07.893Z,56.01
2023-12-03T05:32:07.988Z,55.25
2023-12-03T05:33:08.103Z,53.28
2023-12-03T05:34:08.201Z,56.15
2023-12-03T05:35:08.155Z,56.76
2023-12-03T05:36:08.227Z,54.53
2023-12-03T05:37:08.315Z,56.30
2023-12-03T05:38:08.430Z,54.34
2023-12-03T05:39:08.465Z,56.44
2023-12-03T05:40:08.578Z,54.15
2023-12-03T05:41:08.580Z,53.72
2023-12-03T05:42:08.698Z,55.47
2023-12-03T05:43:08.748Z,55.00
2023-12-03T05:44:08.768Z,55.62
2023-12-03T05:45:08.902Z,54.68
2023-12-03T05:46:08.911Z,55.86
2023-12-03T05:47:08.989Z,55.70
2023-12-03T05:48:09.150Z,53.68
2023-12-03T05:49:09.242Z,54.22
2023-12-03T05:50:09.344Z,55.16
2023-12-03T05:51:09.277Z,55.80
2023-12-03T05:52:09.349Z,55.05
2023-12-03T05:53:09.485Z,55.40
2023-12-03T05:54:09.472Z,55.52
2023-12-03T05:55:09.522Z,58.71
2023-12-03T05:56:09.598Z,56.12
2023-12-03T05:57:09.665Z,55.27
2023-12-03T05:58:09.756Z,58.12
2023-12-03T05:59:09.836Z,54.19
2023-12-03T06:00:09.870Z,57.36
2023-12-03T06:01:09.973Z,52.45
2023-12-03T06:02:10.076Z,56.56
2023-12-03T06:03:10.121Z,56.66
2023-12-03T06:04:10.259Z,57.76
2023-12-03T06:05:10.301Z,58.37
2023-12-03T06:06:10.358Z,56.13
2023-12-03T06:07:10.428Z,54.59
2023-12-03T06:08:10.427Z,56.73
2023-12-03T06:09:10.610Z,56.44
2023-12-03T06:10:10.619Z,56.79
2023-12-03T06:11:10.647Z,54.39
2023-12-03T06:12:10.750Z,55.85
2023-12-03T06:13:10.809Z,56.18
2023-12-03T06:14:10.901Z,59.35
2023-12-03T06:15:10.924Z,58.27
2023-12-03T06:16:11.020Z,55.27
2023-12-03T06:17:11.138Z,57.37
2023-12-03T06:18:11.168Z,55.72
2023-12-03T06:19:11.336Z,57.32
2023-12-03T06:20:11.274Z,58.67
2023-12-03T06:21:11.371Z,55.60
2023-12-03T06:22:11.439Z,57.21
2023-12-03T06:23:11.515Z,56.50
2023-12-03T06:24:11.568Z,57.18
2023-12-03T06:25:11.635Z,56.33
2023-12-03T06:26:11.685Z,59.15
2023-12-03T06:27:11.798Z,56.85
2023-12-03T06:28:11.855Z,54.57
2023-12-03T06:29:11.904Z,57.15
2023-12-03T06:30:12.063Z,59.37
2023-12-03T06:31:12.016Z,58.20
2023-12-03T06:32:12.105Z,57.23
2023-12-03T06:33:12.191Z,56.46
2023-12-03T06:34:12.316Z,57.04
2023-12-03T06:35:12.320Z,55.55
2023-12-03T06:36:12.412Z,57.31
2023-12-03T06:37:12.438Z,56.56
2023-12-03T06:38:12.507Z,56.20
2023-12-03T06:39:12.655Z,57.76
2023-12-03T06:40:12.662Z,58.99
2023-12-03T06:41:12.716Z,54.15
2023-12-03T06:42:12.844Z,59.58
2023-12-03T06:43:12.874Z,56.54
2023-12-03T06:44:13.018Z,56.64
2023-12-03T06:46:13.035Z,55.35
2023-12-03T06:47:13.175Z,55.95
2023-12-03T06:48:13.265Z,58.97
2023-12-03T06:49:13.347Z,53.98
2023-12-03T06:50:13.320Z,55.29
2023-12-03T06:51:13.442Z,57.51
2023-12-03T06:52:13.451Z,58.65
2023-12-03T06:53:13.494Z,56.98
2023-12-03T06:54:13.654Z,54.82
2023-12-03T06:55:13.630Z,57.18
2023-12-03T06:56:13.680Z,56.52
2023-12-03T06:57:13.775Z,56.68
2023-12-03T06:58:13.821Z,54.77
2023-12-03T06:59:13.908Z,55.90
2023-12-03T07:00:14.011Z,56.71
2023-12-03T07:01:14.042Z,53.92
2023-12-03T07:02:14.143Z,55.72
2023-12-03T07:03:14.176Z,56.57
2023-12-03T07:04:14.267Z,56.58
2023-12-03T07:05:14.414Z,55.42
2023-12-03T07:06:14.487Z,55.67
2023-12-03T07:07:14.601Z,56.62
2023-12-03T07:08:14.535Z,53.24
2023-12-03T07:09:36.691Z,56.23
2023-12-03T07:10:15.683Z,56.20
2023-12-03T07:11:14.841Z,56.32
2023-12-03T07:12:14.651Z,56.49
2023-12-03T07:13:16.423Z,54.97
2023-12-03T07:14:14.605Z,56.31
2023-12-03T07:15:14.634Z,59.26
2023-12-03T07:16:14.595Z,56.53
2023-12-03T07:17:14.642Z,57.65
2023-12-03T07:18:14.700Z,53.86
2023-12-03T07:19:14.767Z,57.95
2023-12-03T07:20:14.773Z,56.69
2023-12-03T07:21:14.909Z,56.79
2023-12-03T07:22:14.959Z,55.11
2023-12-03T07:23:14.998Z,57.78
2023-12-03T07:24:15.103Z,56.89
2023-12-03T07:25:15.149Z,57.36
2023-12-03T07:26:15.346Z,55.80
2023-12-03T07:27:16.229Z,56.23
2023-12-03T07:28:15.341Z,58.45
2023-12-03T07:29:15.444Z,58.41
2023-12-03T07:30:15.539Z,57.79
2023-12-03T07:31:15.567Z,55.64
2023-12-03T07:32:15.679Z,54.90
2023-12-03T07:33:15.857Z,57.83
2023-12-03T07:34:15.858Z,58.41
2023-12-03T07:35:15.890Z,55.49
2023-12-03T07:36:15.937Z,56.53
2023-12-03T07:37:16.007Z,56.29
2023-12-03T07:38:16.097Z,56.91
2023-12-03T07:39:18.834Z,54.97
2023-12-03T07:40:16.135Z,56.49
2023-12-03T07:41:16.140Z,55.27
2023-12-03T07:42:16.194Z,56.69
2023-12-03T07:43:16.164Z,56.48
2023-12-03T07:44:16.154Z,57.44
2023-12-03T07:45:16.181Z,55.49
2023-12-03T07:46:16.164Z,56.67
2023-12-03T07:47:16.186Z,56.74
2023-12-03T07:48:16.177Z,57.85
2023-12-03T07:49:16.219Z,58.90
2023-12-03T07:50:16.161Z,58.62
2023-12-03T07:51:16.182Z,58.50
2023-12-03T07:52:16.151Z,55.01
2023-12-03T07:53:16.160Z,56.36
2023-12-03T07:54:16.199Z,55.67
2023-12-03T07:55:16.151Z,55.47
2023-12-03T07:56:16.170Z,55.34
2023-12-03T07:57:16.205Z,56.37
2023-12-03T07:58:16.159Z,54.02
2023-12-03T07:59:16.193Z,55.20
2023-12-03T08:00:16.226Z,55.46
2023-12-03T08:01:16.170Z,54.74
2023-12-03T08:02:16.239Z,56.37
2023-12-03T08:03:16.350Z,57.93
2023-12-03T08:04:16.227Z,56.81
2023-12-03T08:05:16.301Z,55.57
2023-12-03T08:06:16.233Z,54.53
2023-12-03T08:07:16.369Z,56.48
2023-12-03T08:08:16.254Z,54.46
2023-12-03T08:09:16.262Z,56.04
2023-12-03T08:10:16.202Z,55.55
2023-12-03T08:11:18.179Z,57.56
2023-12-03T08:12:16.320Z,56.58
2023-12-03T08:13:16.339Z,54.61
2023-12-03T08:14:16.415Z,56.14
2023-12-03T08:15:16.543Z,58.21
2023-12-03T08:16:16.594Z,58.55
2023-12-03T08:17:16.630Z,58.29
2023-12-03T08:18:16.815Z,55.17
2023-12-03T08:19:16.842Z,57.98
2023-12-03T08:20:16.844Z,58.19
2023-12-03T08:21:17.054Z,58.43
2023-12-03T08:22:16.982Z,56.66
2023-12-03T08:23:17.032Z,54.71
2023-12-03T08:24:17.122Z,57.27
2023-12-03T08:25:17.163Z,54.60
2023-12-03T08:26:17.262Z,57.57
2023-12-03T08:27:17.355Z,57.80
2023-12-03T08:28:17.395Z,54.78
2023-12-03T08:29:17.482Z,56.29
2023-12-03T08:30:17.609Z,54.42
2023-12-03T08:31:18.441Z,58.02
2023-12-03T08:32:17.710Z,58.53
2023-12-03T08:33:17.903Z,56.07
2023-12-03T08:34:17.926Z,54.60
2023-12-03T08:35:17.929Z,57.77
2023-12-03T08:36:17.961Z,55.91
2023-12-03T08:37:18.044Z,57.24
2023-12-03T08:38:18.085Z,58.33
2023-12-03T08:39:18.218Z,53.66
2023-12-03T08:40:18.230Z,58.40
2023-12-03T08:41:18.319Z,57.48
2023-12-03T08:42:18.429Z,55.91
2023-12-03T08:43:18.469Z,56.46
2023-12-03T08:44:18.511Z,58.00
2023-12-03T08:45:18.567Z,57.51
2023-12-03T08:46:18.649Z,55.81
2023-12-03T08:47:18.733Z,57.06
2023-12-03T08:48:18.824Z,56.87
2023-12-03T08:49:18.988Z,57.05
2023-12-03T08:50:18.907Z,57.21
2023-12-03T08:51:19.032Z,55.22
2023-12-03T08:52:19.072Z,58.23
2023-12-03T08:53:19.125Z,55.62
2023-12-03T08:54:19.266Z,56.99
2023-12-03T08:55:19.250Z,55.64
2023-12-03T08:56:19.349Z,54.33
2023-12-03T08:57:19.526Z,55.88
2023-12-03T08:58:19.476Z,57.33
2023-12-03T08:59:19.578Z,58.00
2023-12-03T09:00:19.618Z,56.62
2023-12-03T09:01:19.697Z,58.08
2023-12-03T09:02:19.750Z,56.39
2023-12-03T09:03:19.858Z,56.38
2023-12-03T09:04:19.868Z,54.14
2023-12-03T09:05:20.007Z,56.38
2023-12-03T09:06:20.125Z,55.51
2023-12-03T09:07:20.171Z,58.37
2023-12-03T09:08:20.152Z,54.92
2023-12-03T09:09:20.261Z,57.62
2023-12-03T09:10:20.332Z,54.80
2023-12-03T09:11:20.400Z,54.59
2023-12-03T09:12:20.471Z,55.83
2023-12-03T09:13:20.504Z,58.40
2023-12-03T09:14:20.732Z,54.13
2023-12-03T09:15:20.712Z,56.26
2023-12-03T09:16:20.766Z,56.61
2023-12-03T09:17:20.825Z,52.92
2023-12-03T09:18:20.933Z,55.39
2023-12-03T09:19:21.076Z,55.14
2023-12-03T09:20:21.031Z,55.30
2023-12-03T09:21:21.163Z,56.18
2023-12-03T09:22:21.182Z,55.73
2023-12-03T09:23:21.264Z,54.77
2023-12-03T09:24:21.306Z,56.54
2023-12-03T09:25:21.357Z,56.31
2023-12-03T09:26:21.414Z,53.78
2023-12-03T09:27:21.552Z,53.92
2023-12-03T09:28:21.574Z,56.40
2023-12-03T09:29:21.637Z,55.19
2023-12-03T09:30:21.717Z,53.35
2023-12-03T09:31:21.781Z,54.83
2023-12-03T09:32:21.859Z,55.77
2023-12-03T09:33:21.970Z,53.69
2023-12-03T09:34:21.969Z,54.96
2023-12-03T09:35:22.038Z,55.43
2023-12-03T09:36:22.241Z,51.85
2023-12-03T09:37:22.212Z,54.66
2023-12-03T09:38:22.271Z,53.65
2023-12-03T09:39:22.422Z,53.40
2023-12-03T09:40:22.428Z,54.27
2023-12-03T09:41:22.484Z,54.56
2023-12-03T09:42:22.569Z,54.12
2023-12-03T09:43:22.610Z,55.18
2023-12-03T09:44:22.680Z,53.51
2023-12-03T09:45:22.836Z,55.23
2023-12-03T09:46:22.835Z,53.81
2023-12-03T09:47:22.901Z,55.11
2023-12-03T09:48:23.072Z,55.68
2023-12-03T09:49:23.132Z,56.51
2023-12-03T09:50:23.109Z,54.01
2023-12-03T09:51:23.159Z,56.81
2023-12-03T09:52:23.220Z,53.90
2023-12-03T09:53:23.363Z,55.95
2023-12-03T09:54:23.334Z,54.99
2023-12-03T09:55:23.408Z,56.10
2023-12-03T09:56:23.447Z,53.56
2023-12-03T09:57:23.546Z,55.88
2023-12-03T09:58:23.584Z,55.35
2023-12-03T09:59:23.654Z,55.66
2023-12-03T10:00:23.753Z,54.97
2023-12-03T10:01:23.759Z,55.34
2023-12-03T10:02:23.861Z,55.81
2023-12-03T10:03:23.891Z,55.31
2023-12-03T10:04:23.948Z,58.38
2023-12-03T10:05:24.124Z,54.85
2023-12-03T10:06:24.088Z,56.01
2023-12-03T10:07:24.087Z,55.55
2023-12-03T10:08:24.104Z,54.62
2023-12-03T10:09:24.199Z,53.56
2023-12-03T10:10:24.309Z,54.29
2023-12-03T10:11:24.284Z,53.92
2023-12-03T10:12:24.368Z,53.50
2023-12-03T10:13:24.384Z,55.29
2023-12-03T10:14:24.415Z,53.20
2023-12-03T10:15:24.586Z,52.59
2023-12-03T10:16:24.520Z,53.16
2023-12-03T10:17:24.609Z,52.61
2023-12-03T10:18:24.709Z,52.07
2023-12-03T10:19:24.816Z,52.47
2023-12-03T10:20:24.759Z,51.67
2023-12-03T10:21:24.895Z,52.27
2023-12-03T10:22:24.915Z,53.47
2023-12-03T10:23:24.965Z,54.92
2023-12-03T10:24:25.007Z,57.75
2023-12-03T10:25:25.077Z,56.62
2023-12-03T10:26:25.161Z,54.99
2023-12-03T10:27:25.255Z,61.40
2023-12-03T10:28:25.249Z,60.50
2023-12-03T10:29:25.267Z,58.00
2023-12-03T10:30:25.380Z,57.58
2023-12-03T10:31:25.391Z,54.31
2023-12-03T10:32:25.518Z,55.83
2023-12-03T10:33:25.565Z,55.83
2023-12-03T10:34:25.654Z,56.12
2023-12-03T10:35:25.623Z,54.38
2023-12-03T10:36:25.794Z,54.79
2023-12-03T10:37:25.732Z,51.49
2023-12-03T10:38:25.783Z,53.38
2023-12-03T10:39:25.900Z,55.10
2023-12-03T10:40:25.906Z,54.94
2023-12-03T10:41:25.938Z,54.86
2023-12-03T10:42:26.000Z,54.97
2023-12-03T10:43:26.044Z,54.03
2023-12-03T10:44:26.081Z,54.40
2023-12-03T10:45:26.166Z,54.38
2023-12-03T10:46:26.199Z,55.26
2023-12-03T10:47:26.347Z,54.44
2023-12-03T10:48:26.331Z,55.20
2023-12-03T10:49:26.439Z,57.32
2023-12-03T10:50:26.406Z,58.14
2023-12-03T10:51:26.502Z,56.25
2023-12-03T10:52:26.483Z,53.19
2023-12-03T10:53:26.535Z,54.68
2023-12-03T10:54:26.648Z,53.92
2023-12-03T10:55:26.692Z,52.65
2023-12-03T10:56:27.555Z,52.92
2023-12-03T10:57:26.739Z,53.51
2023-12-03T10:58:26.767Z,52.97
2023-12-03T10:59:26.814Z,54.70
2023-12-03T11:00:26.862Z,53.15
2023-12-03T11:01:26.892Z,53.64
2023-12-03T11:02:26.929Z,53.93
2023-12-03T11:03:27.048Z,54.34
2023-12-03T11:04:27.053Z,54.56
2023-12-03T11:05:27.089Z,52.94
2023-12-03T11:06:27.172Z,54.07
2023-12-03T11:07:27.177Z,50.72
2023-12-03T11:08:27.172Z,53.83
2023-12-03T11:09:27.270Z,55.15
2023-12-03T11:10:27.295Z,53.24
2023-12-03T11:11:27.362Z,54.74
2023-12-03T11:12:27.416Z,52.62
2023-12-03T11:13:32.846Z,54.67
2023-12-03T11:14:28.395Z,53.69
2023-12-03T11:15:27.461Z,54.84
2023-12-03T11:16:27.373Z,54.21
2023-12-03T11:17:27.464Z,55.07
2023-12-03T11:18:27.506Z,54.20
2023-12-03T11:19:27.546Z,54.35
2023-12-03T11:20:27.444Z,54.17
2023-12-03T11:21:27.468Z,56.74
2023-12-03T11:22:27.394Z,54.93
2023-12-03T11:23:27.426Z,54.38
2023-12-03T11:24:27.450Z,52.23
2023-12-03T11:25:27.394Z,52.58
2023-12-03T11:26:27.427Z,52.45
2023-12-03T11:27:27.520Z,53.54
2023-12-03T11:28:27.523Z,52.69
2023-12-03T11:29:27.573Z,52.09
2023-12-03T11:30:27.599Z,52.76
2023-12-03T11:31:27.661Z,53.79
2023-12-03T11:32:33.161Z,53.96
2023-12-03T11:33:28.807Z,53.71
2023-12-03T11:34:27.814Z,54.10
2023-12-03T11:35:27.662Z,53.31
2023-12-03T11:36:27.698Z,54.44
2023-12-03T11:37:27.662Z,52.81
2023-12-03T11:38:27.697Z,52.50
2023-12-03T11:39:27.757Z,52.80
2023-12-03T11:40:27.708Z,50.12
2023-12-03T11:41:27.708Z,50.56
2023-12-03T11:42:27.750Z,51.64
2023-12-03T11:43:27.902Z,53.33
2023-12-03T11:44:27.731Z,54.21
2023-12-03T11:45:28.093Z,53.14
2023-12-03T11:46:27.710Z,54.19
2023-12-03T11:47:27.784Z,51.17
2023-12-03T11:48:27.889Z,52.58
2023-12-03T11:49:27.905Z,52.63
2023-12-03T11:50:27.851Z,53.69
2023-12-03T11:51:27.982Z,51.50
2023-12-03T11:52:27.962Z,51.73
2023-12-03T11:53:28.018Z,52.07
2023-12-03T11:54:28.116Z,53.00
2023-12-03T11:55:28.068Z,51.24
2023-12-03T11:56:28.978Z,53.06
2023-12-03T11:57:28.201Z,53.17
2023-12-03T11:58:28.250Z,52.17
2023-12-03T11:59:28.248Z,50.68
2023-12-03T12:00:28.357Z,52.21
2023-12-03T12:01:28.324Z,52.92
2023-12-03T12:02:28.429Z,53.57
2023-12-03T12:03:29.543Z,51.78
2023-12-03T12:04:28.495Z,53.85
2023-12-03T12:05:28.540Z,54.27
2023-12-03T12:06:28.632Z,55.95
2023-12-03T12:07:28.682Z,53.17
2023-12-03T12:08:28.653Z,51.78
2023-12-03T12:09:28.781Z,53.29
2023-12-03T12:10:28.769Z,53.52
2023-12-03T12:11:28.825Z,54.77
2023-12-03T12:12:28.878Z,54.61
2023-12-03T12:13:28.897Z,53.61
2023-12-03T12:14:28.973Z,53.16
2023-12-03T12:15:29.027Z,50.87
2023-12-03T12:16:29.023Z,53.36
2023-12-03T12:17:29.069Z,53.37
2023-12-03T12:18:29.173Z,53.09
2023-12-03T12:19:29.259Z,52.57
2023-12-03T12:20:29.291Z,55.62
2023-12-03T12:21:29.237Z,54.65
2023-12-03T12:22:29.337Z,52.92
2023-12-03T12:23:29.348Z,51.92
2023-12-03T12:24:29.402Z,53.07
2023-12-03T12:25:29.398Z,52.86
2023-12-03T12:26:29.481Z,52.36
2023-12-03T12:27:29.552Z,55.10
2023-12-03T12:28:29.570Z,54.80
2023-12-03T12:29:29.616Z,53.78
2023-12-03T12:30:34.526Z,53.85
2023-12-03T12:31:30.634Z,53.92
2023-12-03T12:32:32.648Z,54.17
2023-12-03T12:33:29.736Z,53.86
2023-12-03T12:34:29.703Z,52.77
2023-12-03T12:35:29.660Z,54.06
2023-12-03T12:36:29.695Z,53.86
2023-12-03T12:37:40.160Z,53.46
2023-12-03T12:38:30.694Z,53.52
2023-12-03T12:39:29.690Z,53.64
2023-12-03T12:40:31.500Z,54.08
2023-12-03T12:41:29.675Z,54.42
2023-12-03T12:42:29.701Z,55.56
2023-12-03T12:43:29.674Z,55.28
2023-12-03T12:44:29.643Z,54.09
2023-12-03T12:45:30.789Z,54.16
2023-12-03T12:46:29.648Z,54.20
2023-12-03T12:47:29.671Z,54.59
2023-12-03T12:48:29.770Z,54.88
2023-12-03T12:49:29.771Z,57.57
2023-12-03T12:50:29.726Z,56.87
2023-12-03T12:51:29.705Z,56.45
2023-12-03T12:52:29.646Z,55.78
2023-12-03T12:53:29.705Z,54.54
2023-12-03T12:54:29.705Z,53.94